createdAt,value
2022-11-01T00:02:00.998Z,1.00
2022-11-01T00:04:29.535Z,4.00
2022-11-01T00:06:57.641Z,8.50
2022-11-01T00:09:25.672Z,7.00
2022-11-01T00:11:54.048Z,6.00
2022-11-01T00:14:22.356Z,6.50
2022-11-01T00:16:51.742Z,4.50
2022-11-01T00:19:19.950Z,4.50
2022-11-01T00:21:48.402Z,7.00
2022-11-01T00:24:16.374Z,6.25
2022-11-01T00:26:44.493Z,3.75
2022-11-01T00:29:12.907Z,6.50
2022-11-01T00:31:41.479Z,7.00
2022-11-01T00:34:10.888Z,4.50
2022-11-01T00:36:38.920Z,6.00
2022-11-01T00:39:07.771Z,6.00
2022-11-01T00:41:35.876Z,6.25
2022-11-01T00:44:04.069Z,0.75
2022-11-01T00:46:32.104Z,5.00
2022-11-01T00:49:00.117Z,9.00
2022-11-01T00:51:29.564Z,9.00
2022-11-01T00:53:57.507Z,7.00
2022-11-01T00:56:25.899Z,7.00
2022-11-01T00:58:53.852Z,6.00
2022-11-01T01:01:21.921Z,4.00
2022-11-01T01:03:50.366Z,2.00
2022-11-01T01:06:18.407Z,4.00
2022-11-01T01:08:47.824Z,6.00
2022-11-01T01:11:15.910Z,6.00
2022-11-01T01:13:43.979Z,6.50
2022-11-01T01:16:12.828Z,6.00
2022-11-01T01:18:40.870Z,7.00
2022-11-01T01:21:09.378Z,6.75
2022-11-01T01:23:37.407Z,7.00
2022-11-01T01:26:08.415Z,4.50
2022-11-01T01:28:41.747Z,7.50
2022-11-01T01:31:13.866Z,2.00
2022-11-01T01:33:42.185Z,9.00
2022-11-01T01:36:10.787Z,9.00
2022-11-01T01:38:38.757Z,5.00
2022-11-01T01:41:25.729Z,7.00
2022-11-01T01:43:54.129Z,7.00
2022-11-01T01:46:22.089Z,6.00
2022-11-01T01:48:51.655Z,6.00
2022-11-01T01:51:21.055Z,6.00
2022-11-01T01:53:50.605Z,6.00
2022-11-01T01:56:21.255Z,7.00
2022-11-01T01:58:51.395Z,6.00
2022-11-01T02:01:19.858Z,7.00
2022-11-01T02:03:48.050Z,4.75
2022-11-01T02:06:17.066Z,6.75
2022-11-01T02:08:48.324Z,9.00
2022-11-01T02:11:16.694Z,7.00
2022-11-01T02:13:46.650Z,7.00
2022-11-01T02:16:28.899Z,6.00
2022-11-01T02:19:03.301Z,5.50
2022-11-01T02:21:48.017Z,7.00
2022-11-01T02:24:57.628Z,6.75
2022-11-01T02:27:29.013Z,6.20
2022-11-01T02:30:17.142Z,9.00
2022-11-01T02:33:10.197Z,3.00
2022-11-01T02:35:43.406Z,7.00
2022-11-01T02:38:13.722Z,4.00
2022-11-01T02:40:44.417Z,6.40
2022-11-01T02:43:16.031Z,3.00
2022-11-01T02:45:45.646Z,6.00
2022-11-01T02:48:15.191Z,7.00
2022-11-01T02:50:45.440Z,6.00
2022-11-01T02:53:13.861Z,7.00
2022-11-01T02:55:41.973Z,6.25
2022-11-01T02:58:14.764Z,6.00
2022-11-01T03:00:43.559Z,7.50
2022-11-01T03:03:16.463Z,7.00
2022-11-01T03:05:55.583Z,6.80
2022-11-01T03:08:24.431Z,7.00
2022-11-01T03:10:54.625Z,4.00
2022-11-01T03:13:29.866Z,7.00
2022-11-01T03:16:01.946Z,7.00
2022-11-01T03:18:34.084Z,4.00
2022-11-01T03:21:15.527Z,4.00
2022-11-01T03:23:46.728Z,6.75
2022-11-01T03:26:14.938Z,6.00
2022-11-01T03:28:43.442Z,6.00
2022-11-01T03:31:13.158Z,7.00
2022-11-01T03:33:45.922Z,5.50
2022-11-01T03:36:15.720Z,6.00
2022-11-01T03:38:45.151Z,5.00
2022-11-01T03:41:15.199Z,5.00
2022-11-01T03:43:43.478Z,2.50
2022-11-01T03:46:11.432Z,6.50
2022-11-01T03:48:40.573Z,6.00
2022-11-01T03:51:10.057Z,6.00
2022-11-01T03:53:38.059Z,6.25
2022-11-01T03:56:06.905Z,7.00
2022-11-01T03:58:44.083Z,6.25
2022-11-01T04:01:12.627Z,6.80
2022-11-01T04:03:40.665Z,4.00
2022-11-01T04:06:10.200Z,6.75
2022-11-01T04:08:38.135Z,6.00
2022-11-01T04:11:06.201Z,4.00
2022-11-01T04:13:34.189Z,6.00
2022-11-01T04:16:19.928Z,5.50
2022-11-01T04:19:05.481Z,5.75
2022-11-01T04:21:34.862Z,4.00
2022-11-01T04:24:02.885Z,6.50
2022-11-01T04:26:30.947Z,4.00
2022-11-01T04:28:58.920Z,4.50
2022-11-01T04:31:28.110Z,4.00
2022-11-01T04:33:56.086Z,3.75
2022-11-01T04:36:24.167Z,4.50
2022-11-01T04:38:56.686Z,4.00
2022-11-01T04:41:25.033Z,3.50
2022-11-01T04:43:54.268Z,6.00
2022-11-01T04:46:22.277Z,3.50
2022-11-01T04:48:50.281Z,6.00
2022-11-01T04:51:18.497Z,0.00
2022-11-01T04:53:46.479Z,7.00
2022-11-01T04:56:15.864Z,6.00
2022-11-01T04:58:46.437Z,6.00
2022-11-01T05:01:15.511Z,4.00
2022-11-01T05:03:43.790Z,4.00
2022-11-01T05:06:11.774Z,6.00
2022-11-01T05:08:40.220Z,2.00
2022-11-01T05:11:08.202Z,4.00
2022-11-01T05:13:37.637Z,4.00
2022-11-01T05:16:18.789Z,2.00
2022-11-01T05:18:47.588Z,4.00
2022-11-01T05:21:15.523Z,4.50
2022-11-01T05:23:44.041Z,3.25
2022-11-01T05:26:12.477Z,4.00
2022-11-01T05:28:41.867Z,1.50
2022-11-01T05:31:09.937Z,4.00
2022-11-01T05:33:37.944Z,6.25
2022-11-01T05:36:06.472Z,6.50
2022-11-01T05:38:34.445Z,4.00
2022-11-01T05:41:03.780Z,4.00
2022-11-01T05:43:31.782Z,4.00
2022-11-01T05:46:04.747Z,3.50
2022-11-01T05:48:33.184Z,3.25
2022-11-01T05:51:01.229Z,5.00
2022-11-01T05:53:29.310Z,4.00
2022-11-01T05:55:57.630Z,4.50
2022-11-01T05:58:29.566Z,5.00
2022-11-01T06:01:00.571Z,1.00
2022-11-01T06:03:28.700Z,3.75
2022-11-01T06:05:58.667Z,5.50
2022-11-01T06:08:26.800Z,6.00
2022-11-01T06:10:58.160Z,4.00
2022-11-01T06:13:29.577Z,3.00
2022-11-01T06:16:00.977Z,4.00
2022-11-01T06:18:29.208Z,3.50
2022-11-01T06:20:57.904Z,2.00
2022-11-01T06:23:26.140Z,4.00
2022-11-01T06:26:01.196Z,3.50
2022-11-01T06:28:29.480Z,3.00
2022-11-01T06:30:57.742Z,4.00
2022-11-01T06:33:27.399Z,1.00
2022-11-01T06:35:55.633Z,3.50
2022-11-01T06:38:25.614Z,3.25
2022-11-01T06:40:54.194Z,2.00
2022-11-01T06:43:22.659Z,4.00
2022-11-01T06:45:54.452Z,2.50
2022-11-01T06:48:22.844Z,3.50
2022-11-01T06:50:54.186Z,0.00
2022-11-01T06:53:27.962Z,3.00
2022-11-01T06:55:56.527Z,3.00
2022-11-01T06:58:24.758Z,1.00
2022-11-01T07:00:53.149Z,3.00
2022-11-01T07:03:21.583Z,2.00
2022-11-01T07:05:56.359Z,3.00
2022-11-01T07:08:31.246Z,1.00
2022-11-01T07:11:00.740Z,2.00
2022-11-01T07:13:36.875Z,3.00
2022-11-01T07:16:08.313Z,3.50
2022-11-01T07:18:36.573Z,3.25
2022-11-01T07:21:05.291Z,3.00
2022-11-01T07:23:38.025Z,3.00
2022-11-01T07:26:08.958Z,3.00
2022-11-01T07:28:40.151Z,1.00
2022-11-01T07:31:08.710Z,1.50
2022-11-01T07:33:46.081Z,3.00
2022-11-01T07:36:17.280Z,0.00
2022-11-01T07:38:57.573Z,1.00
2022-11-01T07:41:26.224Z,3.00
2022-11-01T07:43:54.764Z,1.00
2022-11-01T07:46:25.908Z,0.00
2022-11-01T07:48:54.809Z,0.00
2022-11-01T07:51:23.502Z,0.00
2022-11-01T07:53:53.468Z,1.00
2022-11-01T07:56:26.006Z,0.00
2022-11-01T07:58:56.349Z,0.25
2022-11-01T08:01:24.745Z,1.00
2022-11-01T08:03:59.570Z,0.00
2022-11-01T08:06:35.240Z,0.00
2022-11-01T08:09:11.761Z,1.00
2022-11-01T08:11:42.953Z,0.75
2022-11-01T08:14:12.350Z,0.00
2022-11-01T08:16:45.036Z,0.00
2022-11-01T08:19:17.207Z,0.00
2022-11-01T08:21:51.567Z,0.00
2022-11-01T08:24:25.716Z,0.00
2022-11-01T08:26:53.976Z,0.00
2022-11-01T08:29:22.561Z,0.00
2022-11-01T08:31:52.693Z,0.00
2022-11-01T08:34:21.046Z,0.00
2022-11-01T08:36:49.430Z,1.00
2022-11-01T08:39:17.975Z,0.00
2022-11-01T08:41:51.231Z,0.00
2022-11-01T08:44:20.203Z,0.00
2022-11-01T08:46:48.716Z,0.00
2022-11-01T08:49:22.254Z,0.00
2022-11-01T08:51:50.491Z,0.00
2022-11-01T08:54:18.738Z,0.00
2022-11-01T08:56:47.061Z,0.00
2022-11-01T08:59:16.677Z,0.00
2022-11-01T09:01:52.911Z,0.00
2022-11-01T09:04:22.658Z,0.00
2022-11-01T09:07:08.819Z,0.00
2022-11-01T09:09:46.294Z,0.00
2022-11-01T09:12:18.402Z,0.00
2022-11-01T09:14:53.436Z,0.00
2022-11-01T09:17:23.229Z,0.00
2022-11-01T09:19:52.352Z,0.00
2022-11-01T09:22:23.830Z,0.00
2022-11-01T09:24:52.151Z,0.00
2022-11-01T09:27:20.481Z,0.00
2022-11-01T09:29:51.963Z,0.00
2022-11-01T09:32:25.649Z,0.00
2022-11-01T09:34:55.655Z,0.00
2022-11-01T09:37:27.141Z,0.00
2022-11-01T09:39:58.167Z,0.00
2022-11-01T09:42:39.042Z,0.00
2022-11-01T09:45:16.194Z,0.00
2022-11-01T09:47:53.367Z,0.00
2022-11-01T09:50:25.783Z,0.00
2022-11-01T09:52:55.592Z,0.00
2022-11-01T09:55:37.132Z,0.00
2022-11-01T09:58:08.573Z,0.25
2022-11-01T10:00:47.414Z,0.00
2022-11-01T10:03:24.125Z,0.00
2022-11-01T10:05:58.817Z,0.00
2022-11-01T10:08:40.658Z,0.00
2022-11-01T10:11:17.620Z,0.00
2022-11-01T10:13:51.558Z,0.00
2022-11-01T10:16:25.439Z,0.00
2022-11-01T10:19:07.678Z,0.00
2022-11-01T10:21:43.041Z,0.33
2022-11-01T10:24:26.372Z,0.00
2022-11-01T10:26:58.974Z,0.00
2022-11-01T10:29:30.239Z,0.00
2022-11-01T10:31:59.061Z,0.00
2022-11-01T10:34:34.967Z,0.00
2022-11-01T10:37:15.809Z,0.00
2022-11-01T10:39:58.945Z,0.00
2022-11-01T10:42:38.761Z,2.25
2022-11-01T10:45:21.860Z,0.00
2022-11-01T10:47:56.365Z,0.00
2022-11-01T10:50:34.338Z,0.00
2022-11-01T10:53:04.169Z,0.00
2022-11-01T10:55:36.922Z,0.50
2022-11-01T10:58:06.474Z,0.00
2022-11-01T11:00:42.322Z,0.00
2022-11-01T11:03:17.242Z,0.00
2022-11-01T11:05:48.384Z,0.00
2022-11-01T11:08:17.649Z,0.00
2022-11-01T11:10:58.381Z,0.00
2022-11-01T11:13:27.460Z,0.00
2022-11-01T11:16:00.763Z,0.00
2022-11-01T11:18:32.061Z,0.75
2022-11-01T11:21:06.828Z,0.00
2022-11-01T11:23:36.391Z,0.00
2022-11-01T11:26:06.277Z,0.00
2022-11-01T11:28:43.814Z,0.00
2022-11-01T11:31:15.203Z,0.00
2022-11-01T11:33:49.994Z,0.00
2022-11-01T11:36:26.247Z,0.00
2022-11-01T11:39:22.870Z,0.00
2022-11-01T11:41:55.490Z,0.00
2022-11-01T11:44:45.807Z,0.00
2022-11-01T11:47:24.897Z,0.00
2022-11-01T11:49:58.552Z,0.00
2022-11-01T11:52:53.593Z,0.00
2022-11-01T11:55:30.038Z,0.00
2022-11-01T11:58:05.683Z,0.00
2022-11-01T12:00:41.139Z,0.75
2022-11-01T12:03:15.968Z,0.00
2022-11-01T12:06:00.092Z,0.00
2022-11-01T12:08:44.630Z,0.00
2022-11-01T12:11:14.707Z,0.00
2022-11-01T12:13:44.632Z,0.00
2022-11-01T12:18:59.026Z,0.00
2022-11-01T12:21:30.719Z,0.00
2022-11-01T12:24:03.048Z,0.00
2022-11-01T12:26:33.101Z,0.00
2022-11-01T12:29:06.360Z,0.00
2022-11-01T12:31:34.967Z,0.00
2022-11-01T12:34:06.698Z,0.00
2022-11-01T12:36:37.575Z,0.00
2022-11-01T12:39:18.916Z,0.00
2022-11-01T12:42:08.194Z,0.00
2022-11-01T12:44:37.581Z,0.00
2022-11-01T12:47:16.370Z,0.00
2022-11-01T12:49:48.428Z,0.00
2022-11-01T12:52:21.384Z,0.00
2022-11-01T12:54:58.733Z,0.00
2022-11-01T12:57:26.974Z,0.00
2022-11-01T12:59:55.461Z,0.00
2022-11-01T13:02:31.147Z,0.00
2022-11-01T13:05:01.478Z,0.00
2022-11-01T13:07:37.810Z,0.00
2022-11-01T13:10:18.935Z,0.00
2022-11-01T13:12:54.265Z,0.00
2022-11-01T13:15:28.242Z,0.00
2022-11-01T13:18:03.838Z,0.00
2022-11-01T13:20:37.589Z,0.00
2022-11-01T13:23:15.314Z,0.00
2022-11-01T13:25:51.853Z,0.00
2022-11-01T13:28:32.336Z,0.00
2022-11-01T13:31:08.676Z,0.00
2022-11-01T13:33:42.030Z,0.00
2022-11-01T13:36:15.129Z,0.00
2022-11-01T13:38:47.374Z,0.00
2022-11-01T13:41:21.122Z,0.00
2022-11-01T13:43:51.264Z,0.00
2022-11-01T13:46:32.344Z,0.75
2022-11-01T13:49:14.044Z,0.00
2022-11-01T13:51:43.206Z,0.00
2022-11-01T13:54:20.273Z,0.00
2022-11-01T13:56:58.037Z,0.00
2022-11-01T13:59:33.554Z,0.00
2022-11-01T14:02:36.147Z,0.00
2022-11-01T14:05:07.278Z,0.00
2022-11-01T14:07:40.300Z,0.00
2022-11-01T14:10:12.855Z,0.00
2022-11-01T14:13:00.539Z,0.00
2022-11-01T14:15:39.544Z,0.00
2022-11-01T14:18:11.879Z,0.00
2022-11-01T14:20:56.202Z,0.00
2022-11-01T14:23:54.171Z,0.00
2022-11-01T14:26:36.197Z,0.00
2022-11-01T14:29:20.280Z,0.00
2022-11-01T14:31:55.584Z,0.00
2022-11-01T14:34:30.329Z,0.75
2022-11-01T14:37:00.478Z,0.00
2022-11-01T14:39:33.584Z,0.00
2022-11-01T14:42:05.064Z,0.00
2022-11-01T14:44:36.818Z,0.00
2022-11-01T14:47:08.087Z,0.00
2022-11-01T14:49:43.497Z,0.00
2022-11-01T14:52:15.060Z,0.50
2022-11-01T14:54:56.889Z,0.00
2022-11-01T14:57:49.353Z,1.00
2022-11-01T15:00:28.741Z,1.00
2022-11-01T15:05:31.489Z,3.00
2022-11-01T15:08:00.764Z,1.00
2022-11-01T15:10:42.755Z,0.00
2022-11-01T15:13:11.238Z,1.00
2022-11-01T15:15:40.874Z,0.25
2022-11-01T15:18:17.158Z,3.00
2022-11-01T15:20:59.020Z,0.75
2022-11-01T15:23:36.813Z,1.00
2022-11-01T15:26:07.978Z,0.00
2022-11-01T15:28:41.396Z,0.00
2022-11-01T15:31:15.486Z,0.00
2022-11-01T15:34:13.070Z,0.00
2022-11-01T15:36:46.566Z,0.00
2022-11-01T15:39:25.667Z,0.00
2022-11-01T15:42:00.580Z,0.00
2022-11-01T15:44:35.129Z,0.50
2022-11-01T15:47:06.807Z,0.50
2022-11-01T15:49:38.281Z,1.00
2022-11-01T15:52:08.542Z,0.75
2022-11-01T15:54:42.946Z,0.75
2022-11-01T15:57:21.249Z,0.25
2022-11-01T16:00:01.755Z,0.00
2022-11-01T16:02:35.736Z,0.00
2022-11-01T16:05:21.624Z,0.75
2022-11-01T16:07:50.030Z,0.75
2022-11-01T16:10:20.318Z,0.00
2022-11-01T16:12:49.108Z,1.00
2022-11-01T16:15:21.445Z,0.50
2022-11-01T16:17:52.344Z,0.00
2022-11-01T16:20:34.152Z,0.00
2022-11-01T16:23:02.979Z,0.40
2022-11-01T16:25:33.021Z,0.50
2022-11-01T16:28:03.973Z,0.50
2022-11-01T16:30:36.767Z,0.40
2022-11-01T16:35:57.277Z,0.20
2022-11-01T16:38:29.051Z,0.00
2022-11-01T16:40:58.596Z,0.00
2022-11-01T16:43:27.558Z,0.00
2022-11-01T16:45:56.263Z,0.00
2022-11-01T16:48:27.367Z,0.00
2022-11-01T16:50:56.284Z,1.00
2022-11-01T16:53:25.661Z,0.00
2022-11-01T16:56:01.370Z,1.00
2022-11-01T16:58:33.990Z,1.00
2022-11-01T17:01:02.272Z,1.00
2022-11-01T17:03:32.466Z,0.60
2022-11-01T17:06:00.712Z,0.00
2022-11-01T17:08:32.199Z,0.00
2022-11-01T17:11:00.442Z,0.00
2022-11-01T17:13:28.714Z,0.00
2022-11-01T17:15:57.021Z,1.00
2022-11-01T17:18:28.034Z,0.00
2022-11-01T17:20:57.790Z,1.00
2022-11-01T17:23:26.480Z,1.00
2022-11-01T17:25:54.880Z,0.00
2022-11-01T17:28:24.624Z,0.60
2022-11-01T17:30:56.673Z,0.20
2022-11-01T17:33:26.659Z,0.00
2022-11-01T17:35:55.059Z,1.00
2022-11-01T17:38:30.104Z,0.00
2022-11-01T17:40:58.879Z,1.00
2022-11-01T17:43:27.711Z,0.60
2022-11-01T17:45:56.086Z,1.00
2022-11-01T17:48:24.397Z,1.00
2022-11-01T17:50:52.903Z,1.00
2022-11-01T17:53:21.146Z,1.00
2022-11-01T17:55:57.055Z,0.60
2022-11-01T17:58:25.461Z,2.20
2022-11-01T18:00:54.113Z,1.00
2022-11-01T18:03:22.373Z,0.60
2022-11-01T18:05:50.645Z,1.00
2022-11-01T18:08:19.729Z,0.00
2022-11-01T18:10:54.757Z,0.40
2022-11-01T18:13:32.991Z,0.00
2022-11-01T18:16:04.882Z,0.80
2022-11-01T18:18:46.674Z,1.00
2022-11-01T18:21:19.830Z,1.00
2022-11-01T18:23:48.478Z,1.00
2022-11-01T18:26:21.299Z,0.20
2022-11-01T18:28:49.581Z,1.00
2022-11-01T18:31:19.583Z,0.60
2022-11-01T18:33:50.974Z,1.00
2022-11-01T18:36:21.545Z,1.00
2022-11-01T18:38:54.296Z,1.00
2022-11-01T18:41:23.902Z,1.00
2022-11-01T18:43:53.437Z,1.00
2022-11-01T18:46:25.848Z,0.00
2022-11-01T18:48:59.931Z,0.60
2022-11-01T18:51:29.692Z,0.00
2022-11-01T18:53:59.830Z,0.60
2022-11-01T18:56:30.497Z,0.00
2022-11-01T18:59:00.586Z,1.00
2022-11-01T19:01:31.971Z,0.00
2022-11-01T19:04:02.143Z,0.20
2022-11-01T19:06:30.382Z,0.00
2022-11-01T19:09:00.004Z,1.00
2022-11-01T19:11:30.027Z,0.40
2022-11-01T19:13:59.414Z,0.00
2022-11-01T19:16:28.266Z,1.00
2022-11-01T19:18:56.652Z,0.00
2022-11-01T19:21:25.429Z,0.00
2022-11-01T19:23:54.770Z,0.60
2022-11-01T19:26:25.950Z,0.20
2022-11-01T19:28:55.627Z,1.00
2022-11-01T19:31:27.288Z,0.80
2022-11-01T19:33:57.579Z,0.00
2022-11-01T19:36:26.823Z,0.00
2022-11-01T19:38:55.161Z,1.00
2022-11-01T19:41:26.648Z,0.00
2022-11-01T19:43:57.195Z,0.00
2022-11-01T19:46:25.490Z,0.40
2022-11-01T19:48:54.195Z,0.00
2022-11-01T19:51:24.431Z,0.00
2022-11-01T19:53:53.495Z,0.40
2022-11-01T19:56:23.282Z,0.20
2022-11-01T19:58:52.144Z,0.00
2022-11-01T20:01:46.627Z,0.40
2022-11-01T20:04:26.054Z,0.60
2022-11-01T20:06:57.712Z,0.40
2022-11-01T20:09:27.234Z,0.20
2022-11-01T20:11:56.213Z,0.20
2022-11-01T20:14:24.540Z,1.00
2022-11-01T20:16:54.503Z,0.00
2022-11-01T20:19:23.433Z,0.80
2022-11-01T20:21:51.688Z,1.00
2022-11-01T20:24:19.931Z,0.20
2022-11-01T20:26:48.266Z,0.00
2022-11-01T20:29:16.493Z,1.00
2022-11-01T20:31:44.709Z,0.40
2022-11-01T20:34:14.343Z,1.00
2022-11-01T20:36:44.628Z,0.60
2022-11-01T20:39:18.064Z,0.40
2022-11-01T20:41:47.337Z,0.20
2022-11-01T20:44:15.566Z,1.00
2022-11-01T20:46:43.863Z,0.00
2022-11-01T20:49:13.570Z,1.00
2022-11-01T20:51:42.125Z,0.00
2022-11-01T20:54:15.211Z,0.00
2022-11-01T20:56:45.855Z,0.00
2022-11-01T20:59:15.898Z,0.00
2022-11-01T21:01:47.089Z,0.20
2022-11-01T21:04:17.167Z,0.20
2022-11-01T21:07:04.430Z,0.00
2022-11-01T21:09:51.219Z,0.00
2022-11-01T21:12:26.445Z,1.00
2022-11-01T21:14:55.515Z,0.00
2022-11-01T21:17:23.729Z,1.00
2022-11-01T21:19:54.862Z,1.00
2022-11-01T21:22:23.317Z,1.00
2022-11-01T21:24:51.554Z,0.80
2022-11-01T21:27:24.993Z,0.80
2022-11-01T21:29:53.262Z,0.00
2022-11-01T21:32:25.165Z,0.00
2022-11-01T21:34:55.087Z,0.00
2022-11-01T21:37:23.550Z,0.00
2022-11-01T21:39:57.874Z,0.00
2022-11-01T21:42:32.199Z,0.60
2022-11-01T21:45:00.502Z,0.00
2022-11-01T21:47:29.411Z,0.40
2022-11-01T21:49:59.020Z,0.00
2022-11-01T21:52:27.572Z,0.00
2022-11-01T21:54:55.812Z,0.00
2022-11-01T21:57:24.008Z,0.00
2022-11-01T21:59:52.220Z,0.80
2022-11-01T22:02:20.815Z,0.00
2022-11-01T22:04:49.128Z,1.00
2022-11-01T22:07:18.741Z,0.40
2022-11-01T22:09:47.248Z,1.00
2022-11-01T22:12:15.485Z,0.00
2022-11-01T22:14:43.719Z,0.00
2022-11-01T22:17:12.260Z,0.40
2022-11-01T22:19:40.481Z,0.00
2022-11-01T22:22:08.735Z,0.20
2022-11-01T22:24:38.342Z,0.00
2022-11-01T22:27:07.068Z,0.00
2022-11-01T22:29:35.754Z,0.00
2022-11-01T22:32:04.683Z,0.00
2022-11-01T22:34:32.920Z,0.40
2022-11-01T22:37:01.216Z,0.00
2022-11-01T22:39:29.441Z,0.00
2022-11-01T22:41:59.358Z,0.00
2022-11-01T22:44:28.208Z,1.00
2022-11-01T22:46:58.910Z,0.40
2022-11-01T22:49:28.346Z,0.00
2022-11-01T22:51:57.318Z,0.00
2022-11-01T22:54:31.257Z,0.80
2022-11-01T22:57:02.957Z,0.20
2022-11-01T22:59:33.413Z,0.00
2022-11-01T23:02:07.397Z,0.00
2022-11-01T23:04:38.423Z,0.40
2022-11-01T23:07:16.079Z,0.00
2022-11-01T23:09:45.335Z,0.60
2022-11-01T23:12:34.440Z,0.20
2022-11-01T23:15:02.676Z,1.00
2022-11-01T23:17:34.053Z,0.00
2022-11-01T23:20:03.723Z,0.00
2022-11-01T23:22:33.279Z,0.00
2022-11-01T23:25:01.588Z,0.00
2022-11-01T23:27:33.773Z,0.00
2022-11-01T23:30:02.814Z,1.00
2022-11-01T23:32:31.202Z,0.00
2022-11-01T23:35:07.919Z,0.00
2022-11-01T23:37:36.169Z,0.00
2022-11-01T23:40:06.160Z,1.00
2022-11-01T23:42:35.745Z,0.00
2022-11-01T23:45:06.605Z,0.00
2022-11-01T23:47:36.681Z,0.00
2022-11-01T23:50:06.030Z,0.00
2022-11-01T23:52:39.780Z,1.00
2022-11-01T23:55:13.768Z,0.00
2022-11-01T23:57:43.737Z,0.00
